• Join FlightAware (Why Join?)
  • Login
  • US Flag 
10:39PM EDT


 

Airport Tracker/Info


-or-


 

Live Flight TrackerFlight Track Log ✈ UAL4305 ✈ 12-May-2013 ✈ KLBB - KIAH

Flight Track Log - Related Links

Times and Time Zones

All times are in EDT time to prevent confusion due to time zone crossing. See the UAL4305 flight status page for this flight to view local times or setup timezone preferences in your user account.

Time Position Orientation Groundspeed Altitude Reporting Facility
EDT Latitude Longitude Course Direction KTS MPH feet Rate Location/Type
07:50AM 33.6606 -101.7881 140° Southeast 171 197 4,000  Level Fort Worth Center
07:51AM 33.6358 -101.7194 113° Southeast 208 239 6,100 1,920 Climbing Fort Worth Center
07:52AM 33.5875 -101.6697 139° Southeast 242 278 8,100 1,980 Climbing Fort Worth Center
07:53AM 33.4386 -101.5625 132° Southeast  Level FlightAware Approximate
07:53AM 33.5353 -101.6122 137° Southeast 259 298 10,100  Level Fort Worth Center
07:54AM 33.3640 -101.4806 140° Southeast  Level FlightAware Approximate
07:54AM 33.4708 -101.5394 137° Southeast 325 374 12,000  Level Fort Worth Center
07:55AM 33.2862 -101.4028 140° Southeast  Level FlightAware Approximate
07:55AM 33.3983 -101.4617 138° Southeast 325 374 13,700  Level Fort Worth Center
07:56AM 33.3378 -101.3942 137° Southeast 333 383 15,100 1,500 Climbing Fort Worth Center
07:57AM 33.2592 -101.3111 139° Southeast 339 390 16,700 1,320 Climbing Fort Worth Center
07:58AM 33.1922 -101.2411 139° Southeast 345 397 17,800 1,260 Climbing Fort Worth Center
07:59AM 33.1094 -101.1533 138° Southeast 356 410 19,300 1,440 Climbing Fort Worth Center
08:00AM 33.0428 -101.0811 138° Southeast 362 417 20,700 1,380 Climbing Fort Worth Center
08:01AM 32.9636 -101.0011 140° Southeast 372 428 22,100 1,380 Climbing Fort Worth Center
08:02AM 32.8864 -100.9211 139° Southeast 377 434 23,500 1,440 Climbing Fort Worth Center
08:03AM 32.8094 -100.8392 138° Southeast 377 434 25,000 1,440 Climbing Fort Worth Center
08:04AM 32.7303 -100.7572 139° Southeast 377 434 26,400 1,380 Climbing Fort Worth Center
08:05AM 32.6511 -100.6728 138° Southeast 377 434 27,800 1,140 Climbing Fort Worth Center
08:06AM 32.5678 -100.5883 139° Southeast 377 434 28,700 900 Climbing Fort Worth Center
08:07AM 32.4864 -100.5042 139° Southeast 382 440 29,700 960 Climbing Fort Worth Center
08:08AM 32.4028 -100.4178 139° Southeast 387 445 30,700 960 Climbing Fort Worth Center
08:09AM 32.3172 -100.3289 139° Southeast 398 458 31,700 900 Climbing Fort Worth Center
08:10AM 32.2317 -100.2400 139° Southeast 408 470 32,600 1,320 Climbing Fort Worth Center
08:11AM 32.1458 -100.1517 139° Southeast 408 470 34,400 1,320 Climbing Fort Worth Center
08:13AM 31.9692 -99.9664 138° Southeast 381 438 36,900 780 Climbing Houston Center
08:14AM 31.8864 -99.8833 140° Southeast 388 447 37,000  Climbing Houston Center
08:15AM 31.7997 -99.7942 139° Southeast 411 473 37,000  Level Houston Center
08:16AM 31.7081 -99.7017 139° Southeast 429 494 37,000  Level Houston Center
08:17AM 31.6144 -99.6056 139° Southeast 443 510 37,000  Level Houston Center
08:18AM 31.5147 -99.5042 139° Southeast 451 519 37,000  Level Houston Center
08:20AM 31.4175 -99.4083 140° Southeast 453 521 37,000  Level Houston Center
08:21AM 31.3222 -99.3111 139° Southeast 450 518 37,000  Level Houston Center
08:22AM 31.2642 -99.1733 116° Southeast 481 554 37,000  Level Houston Center
08:23AM 31.2431 -99.0119 99° East 494 568 37,000  Level Houston Center
08:24AM 31.2208 -98.8489 99° East 500 575 37,000  Level Houston Center
08:25AM 31.1975 -98.6861 99° East 504 580 37,000  Level Houston Center
08:26AM 31.1733 -98.5217 100° East 507 583 37,000  Level Houston Center
08:27AM 31.1489 -98.3564 100° East 511 588 37,000  Level Houston Center
08:28AM 31.1258 -98.1892 99° East 518 596 37,000  Level Houston Center
08:29AM 31.1000 -98.0206 100° East 521 600 37,000  Level Houston Center
08:30AM 31.0742 -97.8506 100° East 527 606 37,000  Level Houston Center
08:31AM 31.0497 -97.6828 100° East 522 601 37,000  Level Houston Center
08:32AM 31.0211 -97.5200 102° East 511 588 37,000  Level Houston Center
08:33AM 30.9672 -97.3622 112° Southeast 498 573 37,000 -720 Level Houston Center
08:34AM 30.9172 -97.2111 111° Southeast 498 573 35,600 -2,220 Descending Houston Center
08:35AM 30.8644 -97.0486 111° Southeast 504 580 32,500 -2,760 Descending Houston Center
08:36AM 30.8153 -96.9061 112° Southeast 474 545 30,000 -2,460 Descending Houston Center
08:37AM 30.7644 -96.7611 112° Southeast 479 551 27,500 -2,460 Descending Houston Center
08:38AM 30.7117 -96.6075 112° Southeast 505 581 25,000 -2,580 Descending Houston Center
08:39AM 30.6603 -96.4581 112° Southeast 488 562 22,300 -2,760 Descending Houston Center
08:40AM 30.6131 -96.3169 111° Southeast 470 541 19,500 -2,820 Descending Houston Center
08:40AM 30.5950 -96.2708 114° Southeast 452 520 18,600 -2,340 Descending Houston Center
08:41AM 30.5697 -96.1939 111° Southeast 441 507 17,400 -2,520 Descending Houston Center
08:42AM 30.5256 -96.0678 112° Southeast 402 463 14,600 -2,460 Descending Houston Center
08:43AM 30.4781 -95.9328 112° Southeast 402 463 12,200 -1,260 Descending Houston Center
08:44AM 30.4281 -95.8383 122° Southeast 394 453 12,000 -660 Descending Houston Center
08:45AM 30.3378 -95.7433 138° Southeast 371 427 10,900 -1,140 Descending Houston Center
08:46AM 30.2617 -95.6653 138° Southeast 306 352 9,600 -1,380 Descending Houston Center
08:47AM 30.2081 -95.6061 136° Southeast 288 331 8,100 -1,620 Descending Houston Center
08:48AM 30.1500 -95.5456 138° Southeast 273 314 6,500 -1,080 Descending Houston Center
08:49AM 30.1067 -95.4831 129° Southeast 255 293 6,000 -300 Descending Houston Center
08:50AM 30.1056 -95.4011 91° East 256 295 6,000  Level Houston Center
08:51AM 30.1067 -95.3211 89° East 246 283 6,000  Level Houston Center
08:52AM 30.1053 -95.2369 91° East 253 291 6,000 -420 Level Houston Center
08:53AM 30.1061 -95.1711 89° East 214 246 5,200 -1,500 Descending Houston Center
08:54AM 30.0822 -95.1236 120° Southeast 219 252 3,000 -1,620 Descending Houston Center
08:55AM 30.0306 -95.1567 209° Southwest 225 259 2,000 -600 Descending Houston Center
08:56AM 30.0092 -95.2197 249° West 185 213 1,900 -480 Descending Houston Center
08:57AM 30.0075 -95.2706 268° West 151 174 1,100 -840 Descending Houston Center